createdAt,value
2018-12-01T00:01:56.366Z,2.32
2018-12-01T00:05:00.954Z,2.37
2018-12-01T00:08:05.786Z,1.96
2018-12-01T00:11:10.374Z,1.94
2018-12-01T00:14:14.937Z,2.15
2018-12-01T00:17:19.514Z,2.33
2018-12-01T00:20:25.457Z,2.20
2018-12-01T00:23:30.142Z,2.16
2018-12-01T00:26:34.727Z,2.09
2018-12-01T00:29:39.560Z,2.23
2018-12-01T00:32:44.718Z,2.20
2018-12-01T00:35:49.342Z,2.06
2018-12-01T00:38:54.023Z,1.69
2018-12-01T00:41:58.600Z,2.08
2018-12-01T00:45:03.190Z,1.54
2018-12-01T00:48:07.750Z,2.10
2018-12-01T00:51:12.330Z,1.72
2018-12-01T00:54:16.859Z,2.30
2018-12-01T00:57:21.506Z,1.76
2018-12-01T01:00:26.804Z,2.24
2018-12-01T01:03:31.422Z,1.64
2018-12-01T01:06:35.975Z,2.23
2018-12-01T01:09:40.589Z,1.36
2018-12-01T01:12:45.162Z,2.01
2018-12-01T01:15:49.758Z,1.49
2018-12-01T01:18:54.390Z,2.20
2018-12-01T01:21:58.982Z,1.54
2018-12-01T01:25:03.561Z,1.99
2018-12-01T01:28:08.314Z,1.20
2018-12-01T01:31:12.953Z,1.25
2018-12-01T01:34:17.529Z,0.95
2018-12-01T01:37:22.202Z,1.26
2018-12-01T01:40:26.745Z,1.07
2018-12-01T01:43:31.381Z,1.30
2018-12-01T01:46:35.902Z,1.30
2018-12-01T01:49:40.483Z,1.80
2018-12-01T01:52:45.145Z,1.42
2018-12-01T01:55:49.721Z,1.24
2018-12-01T01:58:54.394Z,1.61
2018-12-01T02:01:58.946Z,1.57
2018-12-01T02:05:03.494Z,1.65
2018-12-01T02:08:08.100Z,1.29
2018-12-01T02:11:12.690Z,1.60
2018-12-01T02:14:17.457Z,1.94
2018-12-01T02:17:21.991Z,2.39
2018-12-01T02:20:26.534Z,1.77
2018-12-01T02:23:31.189Z,2.29
2018-12-01T02:26:35.819Z,2.36
2018-12-01T02:29:40.468Z,2.42
2018-12-01T02:32:45.008Z,2.24
2018-12-01T02:35:49.609Z,2.37
2018-12-01T02:38:54.446Z,2.08
2018-12-01T02:41:59.058Z,1.59
2018-12-01T02:45:14.659Z,1.70
2018-12-01T02:48:19.202Z,1.91
2018-12-01T02:51:23.757Z,1.78
2018-12-01T02:54:28.326Z,1.94
2018-12-01T02:57:32.897Z,1.44
2018-12-01T03:00:44.360Z,1.58
2018-12-01T03:03:48.953Z,1.20
2018-12-01T03:06:53.487Z,1.44
2018-12-01T03:09:58.093Z,1.06
2018-12-01T03:13:02.651Z,1.07
2018-12-01T03:16:07.369Z,1.14
2018-12-01T03:19:11.929Z,0.81
2018-12-01T03:22:16.521Z,0.89
2018-12-01T03:25:22.821Z,0.97
2018-12-01T03:28:27.385Z,0.92
2018-12-01T03:31:31.964Z,0.63
2018-12-01T03:34:36.555Z,1.32
2018-12-01T03:37:43.787Z,1.18
2018-12-01T03:40:48.437Z,1.26
2018-12-01T03:43:53.052Z,1.27
2018-12-01T03:46:57.676Z,1.00
2018-12-01T03:50:02.228Z,0.85
2018-12-01T03:53:07.591Z,0.85
2018-12-01T03:56:12.297Z,0.78
2018-12-01T03:59:16.973Z,1.30
2018-12-01T04:02:21.517Z,1.02
2018-12-01T04:05:26.126Z,1.40
2018-12-01T04:08:30.674Z,1.22
2018-12-01T04:11:35.321Z,1.32
2018-12-01T04:14:40.033Z,1.27
2018-12-01T04:17:44.602Z,1.24
2018-12-01T04:20:49.146Z,1.38
2018-12-01T04:23:53.726Z,1.26
2018-12-01T04:26:59.246Z,1.05
2018-12-01T04:30:04.409Z,1.15
2018-12-01T04:33:09.133Z,1.02
2018-12-01T04:36:13.736Z,1.43
2018-12-01T04:39:18.723Z,1.42
2018-12-01T04:42:23.463Z,1.40
2018-12-01T04:45:28.029Z,1.45
2018-12-01T04:48:32.629Z,1.30
2018-12-01T04:51:37.240Z,1.39
2018-12-01T04:54:41.802Z,1.52
2018-12-01T04:57:46.401Z,1.22
2018-12-01T05:00:50.972Z,1.18
2018-12-01T05:03:55.518Z,1.21
2018-12-01T05:07:00.205Z,1.43
2018-12-01T05:10:06.528Z,1.61
2018-12-01T05:13:11.138Z,1.55
2018-12-01T05:16:15.680Z,1.63
2018-12-01T05:19:20.253Z,1.67
2018-12-01T05:22:24.888Z,1.31
2018-12-01T05:25:29.479Z,1.00
2018-12-01T05:28:34.009Z,1.19
2018-12-01T05:31:38.560Z,0.81
2018-12-01T05:34:43.149Z,0.31
2018-12-01T05:37:47.698Z,0.21
2018-12-01T05:40:52.789Z,0.19
2018-12-01T05:43:57.419Z,0.58
2018-12-01T05:47:02.022Z,0.55
2018-12-01T05:50:07.869Z,0.40
2018-12-01T05:53:12.498Z,0.44
2018-12-01T05:56:17.177Z,0.98
2018-12-01T05:59:21.733Z,1.20
2018-12-01T06:02:26.274Z,1.56
2018-12-01T06:05:30.892Z,1.17
2018-12-01T06:08:35.414Z,1.25
2018-12-01T06:11:40.025Z,2.03
2018-12-01T06:14:44.660Z,0.94
2018-12-01T06:17:49.208Z,1.52
2018-12-01T06:20:53.753Z,1.98
2018-12-01T06:23:58.378Z,1.53
2018-12-01T06:27:02.918Z,2.11
2018-12-01T06:30:17.190Z,1.77
2018-12-01T06:33:21.741Z,1.83
2018-12-01T06:36:26.360Z,2.08
2018-12-01T06:39:30.899Z,1.82
2018-12-01T06:42:35.431Z,1.58
2018-12-01T06:45:39.958Z,1.92
2018-12-01T06:48:44.630Z,2.08
2018-12-01T06:51:49.233Z,2.04
2018-12-01T06:54:53.855Z,1.30
2018-12-01T06:57:58.398Z,2.02
2018-12-01T07:01:03.008Z,1.96
2018-12-01T07:04:07.562Z,2.26
2018-12-01T07:07:12.114Z,2.65
2018-12-01T07:10:18.890Z,3.22
2018-12-01T07:13:23.453Z,3.66
2018-12-01T07:16:28.024Z,3.96
2018-12-01T07:19:32.609Z,4.11
2018-12-01T07:22:37.167Z,4.56
2018-12-01T07:25:41.869Z,4.63
2018-12-01T07:28:46.410Z,4.90
2018-12-01T07:31:51.029Z,5.03
2018-12-01T07:34:55.607Z,5.54
2018-12-01T07:38:01.214Z,6.00
2018-12-01T07:41:06.294Z,6.19
2018-12-01T07:44:10.914Z,5.85
2018-12-01T07:47:15.518Z,5.26
2018-12-01T07:50:20.701Z,5.02
2018-12-01T07:53:25.250Z,4.96
2018-12-01T07:56:31.057Z,5.14
2018-12-01T07:59:35.657Z,5.26
2018-12-01T08:02:40.421Z,5.39
2018-12-01T08:05:45.004Z,5.35
2018-12-01T08:08:49.625Z,5.57
2018-12-01T08:11:54.179Z,5.85
2018-12-01T08:14:58.750Z,5.00
2018-12-01T08:18:04.432Z,4.92
2018-12-01T08:21:09.020Z,4.57
2018-12-01T08:24:13.590Z,4.15
2018-12-01T08:27:18.185Z,4.79
2018-12-01T08:30:24.130Z,5.06
2018-12-01T08:33:28.761Z,5.17
2018-12-01T08:36:33.635Z,5.21
2018-12-01T08:39:38.807Z,5.34
2018-12-01T08:42:43.921Z,6.33
2018-12-01T08:45:49.053Z,6.70
2018-12-01T08:48:53.950Z,6.97
2018-12-01T08:51:58.903Z,7.56
2018-12-01T08:55:03.492Z,8.10
2018-12-01T08:58:08.094Z,7.39
2018-12-01T09:01:12.653Z,7.74
2018-12-01T09:04:17.238Z,6.96
2018-12-01T09:07:21.838Z,7.29
2018-12-01T09:10:26.402Z,7.44
2018-12-01T09:13:31.504Z,7.65
2018-12-01T09:16:36.440Z,7.91
2018-12-01T09:19:41.047Z,8.46
2018-12-01T09:22:46.419Z,7.69
2018-12-01T09:25:50.954Z,7.92
2018-12-01T09:28:55.613Z,7.84
2018-12-01T09:32:00.210Z,7.50
2018-12-01T09:35:04.853Z,6.32
2018-12-01T09:38:09.426Z,6.99
2018-12-01T09:41:14.007Z,6.72
2018-12-01T09:44:18.561Z,6.30
2018-12-01T09:47:23.166Z,6.46
2018-12-01T09:50:27.796Z,6.63
2018-12-01T09:53:32.405Z,6.93
2018-12-01T09:56:36.958Z,7.48
2018-12-01T09:59:41.570Z,7.59
2018-12-01T10:02:47.897Z,7.59
2018-12-01T10:05:52.488Z,7.61
2018-12-01T10:08:57.926Z,7.18
2018-12-01T10:12:02.570Z,7.06
2018-12-01T10:15:11.314Z,7.92
2018-12-01T10:18:17.050Z,8.00
2018-12-01T10:21:21.869Z,8.44
2018-12-01T10:24:26.558Z,8.57
2018-12-01T10:27:31.182Z,8.85
2018-12-01T10:30:35.768Z,9.02
2018-12-01T10:33:40.509Z,9.19
2018-12-01T10:36:46.532Z,9.24
2018-12-01T10:39:51.433Z,9.09
2018-12-01T10:42:56.019Z,9.49
2018-12-01T10:46:00.611Z,7.18
2018-12-01T10:49:05.337Z,8.37
2018-12-01T10:52:10.222Z,8.94
2018-12-01T10:55:33.935Z,9.16
2018-12-01T10:58:38.636Z,8.76
2018-12-01T11:01:48.335Z,8.90
2018-12-01T11:04:52.988Z,7.88
2018-12-01T11:07:57.524Z,8.29
2018-12-01T11:11:02.157Z,7.85
2018-12-01T11:14:06.837Z,7.74
2018-12-01T11:17:11.442Z,8.03
2018-12-01T11:20:16.012Z,7.56
2018-12-01T11:23:20.662Z,7.92
2018-12-01T11:26:25.290Z,7.91
2018-12-01T11:29:29.889Z,6.80
2018-12-01T11:32:34.523Z,7.06
2018-12-01T11:35:39.205Z,7.58
2018-12-01T11:38:43.775Z,7.65
2018-12-01T11:41:48.389Z,7.75
2018-12-01T11:44:56.869Z,8.20
2018-12-01T11:47:57.651Z,8.12
2018-12-01T11:51:02.275Z,8.12
2018-12-01T11:54:06.874Z,7.42
2018-12-01T11:57:11.509Z,7.68
2018-12-01T12:00:17.019Z,7.24
2018-12-01T12:03:21.743Z,7.70
2018-12-01T12:06:26.374Z,7.59
2018-12-01T12:09:31.029Z,7.74
2018-12-01T12:12:35.721Z,6.78
2018-12-01T12:15:40.397Z,6.95
2018-12-01T12:18:45.119Z,7.20
2018-12-01T12:21:49.750Z,7.07
2018-12-01T12:24:54.293Z,7.67
2018-12-01T12:27:59.084Z,6.84
2018-12-01T12:31:03.695Z,7.32
2018-12-01T12:34:08.313Z,7.53
2018-12-01T12:37:12.943Z,7.66
2018-12-01T12:40:27.034Z,6.95
2018-12-01T12:43:31.621Z,7.82
2018-12-01T12:46:36.241Z,7.81
2018-12-01T12:49:40.902Z,8.07
2018-12-01T12:52:46.570Z,7.79
2018-12-01T12:55:51.186Z,8.24
2018-12-01T12:58:55.796Z,7.96
2018-12-01T13:02:00.350Z,8.57
2018-12-01T13:05:06.276Z,8.51
2018-12-01T13:08:11.658Z,8.37
2018-12-01T13:11:16.266Z,8.62
2018-12-01T13:14:21.058Z,8.03
2018-12-01T13:17:25.607Z,7.80
2018-12-01T13:20:30.142Z,8.16
2018-12-01T13:23:34.801Z,7.95
2018-12-01T13:26:39.458Z,7.53
2018-12-01T13:29:44.051Z,7.08
2018-12-01T13:32:48.806Z,7.32
2018-12-01T13:35:53.429Z,6.77
2018-12-01T13:38:58.336Z,6.81
2018-12-01T13:42:03.003Z,6.47
2018-12-01T13:45:09.930Z,6.91
2018-12-01T13:48:14.577Z,6.77
2018-12-01T13:51:19.280Z,6.75
2018-12-01T13:54:23.927Z,6.54
2018-12-01T13:57:28.487Z,6.73
2018-12-01T14:00:33.133Z,6.69
2018-12-01T14:03:38.334Z,6.71
2018-12-01T14:06:42.355Z,6.04
2018-12-01T14:09:46.928Z,6.12
2018-12-01T14:12:52.906Z,5.87
2018-12-01T14:15:57.466Z,6.13
2018-12-01T14:19:02.068Z,5.97
2018-12-01T14:22:06.614Z,5.85
2018-12-01T14:25:12.091Z,6.08
2018-12-01T14:28:16.678Z,6.02
2018-12-01T14:31:21.263Z,5.81
2018-12-01T14:34:25.848Z,5.96
2018-12-01T14:37:30.414Z,5.73
2018-12-01T14:40:35.110Z,5.91
2018-12-01T14:43:39.686Z,5.67
2018-12-01T14:46:44.511Z,5.87
2018-12-01T14:49:49.162Z,5.87
2018-12-01T14:52:53.741Z,5.92
2018-12-01T14:55:58.338Z,5.80
2018-12-01T14:59:02.966Z,5.51
2018-12-01T15:02:07.821Z,5.85
2018-12-01T15:05:12.541Z,5.51
2018-12-01T15:08:17.117Z,5.68
2018-12-01T15:11:21.818Z,5.36
2018-12-01T15:14:26.468Z,5.80
2018-12-01T15:17:30.993Z,5.74
2018-12-01T15:20:35.826Z,5.63
2018-12-01T15:23:40.380Z,5.78
2018-12-01T15:26:45.001Z,5.56
2018-12-01T15:29:49.581Z,5.43
2018-12-01T15:33:11.466Z,5.67
2018-12-01T15:36:16.528Z,5.00
2018-12-01T15:39:28.246Z,5.38
2018-12-01T15:42:32.830Z,5.38
2018-12-01T15:45:37.499Z,5.12
2018-12-01T15:48:42.175Z,5.38
2018-12-01T15:51:46.850Z,5.04
2018-12-01T15:54:51.502Z,5.42
2018-12-01T15:57:56.085Z,5.09
2018-12-01T16:01:00.763Z,5.37
2018-12-01T16:04:05.905Z,5.43
2018-12-01T16:07:10.505Z,5.42
2018-12-01T16:10:16.540Z,5.40
2018-12-01T16:13:22.502Z,5.29
2018-12-01T16:16:27.190Z,5.21
2018-12-01T16:19:31.792Z,5.41
2018-12-01T16:22:36.530Z,4.91
2018-12-01T16:25:41.147Z,5.31
2018-12-01T16:28:45.740Z,5.10
2018-12-01T16:31:50.343Z,5.23
2018-12-01T16:34:55.177Z,5.32
2018-12-01T16:37:59.880Z,5.19
2018-12-01T16:41:36.816Z,5.27
2018-12-01T16:44:41.457Z,5.17
2018-12-01T16:47:46.128Z,5.16
2018-12-01T16:50:50.910Z,5.18
2018-12-01T16:53:55.673Z,5.27
2018-12-01T16:57:00.322Z,5.33
2018-12-01T17:00:08.483Z,4.99
2018-12-01T17:03:13.959Z,5.08
2018-12-01T17:06:19.708Z,5.16
2018-12-01T17:09:24.321Z,5.15
2018-12-01T17:12:28.992Z,5.18
2018-12-01T17:15:33.889Z,5.15
2018-12-01T17:18:38.546Z,5.19
2018-12-01T17:21:43.261Z,5.11
2018-12-01T17:24:47.969Z,5.23
2018-12-01T17:27:53.704Z,5.18
2018-12-01T17:30:58.297Z,5.04
2018-12-01T17:34:02.918Z,5.14
2018-12-01T17:37:07.535Z,5.12
2018-12-01T17:40:41.230Z,5.16
2018-12-01T17:43:50.092Z,5.07
2018-12-01T17:46:55.987Z,5.17
2018-12-01T17:50:00.642Z,5.21
2018-12-01T17:53:10.493Z,4.59
2018-12-01T17:56:18.072Z,4.99
2018-12-01T17:59:22.716Z,4.99
2018-12-01T18:02:27.398Z,5.00
2018-12-01T18:05:42.202Z,4.92
2018-12-01T18:08:46.777Z,4.45
2018-12-01T18:11:51.495Z,4.77
2018-12-01T18:14:56.318Z,4.91
2018-12-01T18:18:01.064Z,4.90
2018-12-01T18:21:05.840Z,4.95
2018-12-01T18:24:10.543Z,4.92
2018-12-01T18:27:15.221Z,4.96
2018-12-01T18:30:24.571Z,5.03
2018-12-01T18:33:31.069Z,4.98
2018-12-01T18:36:35.706Z,4.97
2018-12-01T18:39:40.361Z,4.92
2018-12-01T18:42:45.006Z,5.03
2018-12-01T18:45:52.341Z,4.56
2018-12-01T18:48:57.875Z,4.79
2018-12-01T18:52:02.538Z,4.85
2018-12-01T18:55:09.765Z,4.89
2018-12-01T18:58:14.493Z,4.85
2018-12-01T19:01:19.066Z,5.01
2018-12-01T19:04:24.179Z,5.17
2018-12-01T19:07:28.802Z,5.06
2018-12-01T19:10:34.300Z,5.06
2018-12-01T19:13:38.994Z,5.14
2018-12-01T19:16:43.661Z,5.07
2018-12-01T19:19:49.233Z,5.23
2018-12-01T19:22:56.654Z,5.13
2018-12-01T19:26:01.749Z,5.12
2018-12-01T19:29:07.086Z,5.17
2018-12-01T19:32:11.802Z,5.05
2018-12-01T19:35:17.222Z,5.04
2018-12-01T19:38:27.995Z,5.04
2018-12-01T19:41:32.631Z,5.08
2018-12-01T19:44:37.260Z,5.09
2018-12-01T19:47:41.905Z,5.08
2018-12-01T19:50:46.566Z,5.10
2018-12-01T19:53:51.217Z,5.04
2018-12-01T19:56:55.850Z,5.02
2018-12-01T20:00:00.522Z,5.08
2018-12-01T20:03:07.098Z,5.10
2018-12-01T20:06:11.929Z,5.20
2018-12-01T20:09:16.587Z,5.22
2018-12-01T20:12:21.253Z,5.07
2018-12-01T20:15:29.594Z,4.92
2018-12-01T20:18:34.214Z,4.93
2018-12-01T20:21:38.838Z,4.84
2018-12-01T20:24:43.620Z,5.05
2018-12-01T20:27:48.247Z,4.94
2018-12-01T20:30:52.841Z,4.55
2018-12-01T20:33:59.300Z,4.81
2018-12-01T20:37:07.651Z,4.82
2018-12-01T20:40:15.923Z,4.77
2018-12-01T20:43:20.474Z,4.78
2018-12-01T20:46:25.165Z,4.44
2018-12-01T20:49:29.843Z,4.56
2018-12-01T20:52:34.417Z,4.52
2018-12-01T20:55:40.042Z,4.21
2018-12-01T20:58:44.621Z,4.13
2018-12-01T21:01:49.226Z,3.74
2018-12-01T21:04:53.786Z,4.06
2018-12-01T21:08:02.245Z,4.45
2018-12-01T21:11:04.897Z,4.38
2018-12-01T21:14:09.520Z,4.53
2018-12-01T21:17:14.209Z,4.35
2018-12-01T21:20:19.281Z,4.38
2018-12-01T21:23:23.843Z,4.33
2018-12-01T21:26:28.400Z,4.43
2018-12-01T21:29:33.067Z,3.67
2018-12-01T21:32:37.621Z,3.65
2018-12-01T21:35:42.306Z,3.99
2018-12-01T21:38:46.859Z,3.41
2018-12-01T21:41:51.509Z,3.84
2018-12-01T21:44:56.076Z,3.51
2018-12-01T21:48:00.626Z,4.19
2018-12-01T21:51:05.215Z,3.73
2018-12-01T21:54:09.791Z,3.42
2018-12-01T21:57:14.438Z,3.94
2018-12-01T22:00:22.250Z,4.25
2018-12-01T22:03:27.770Z,4.11
2018-12-01T22:06:32.385Z,4.16
2018-12-01T22:09:39.555Z,4.04
2018-12-01T22:12:44.383Z,3.55
2018-12-01T22:15:49.044Z,3.96
2018-12-01T22:18:53.614Z,4.21
2018-12-01T22:21:58.324Z,3.74
2018-12-01T22:25:03.030Z,3.96
2018-12-01T22:28:09.639Z,4.20
2018-12-01T22:31:14.345Z,4.29
2018-12-01T22:34:18.928Z,4.41
2018-12-01T22:37:23.495Z,4.33
2018-12-01T22:40:30.293Z,3.86
2018-12-01T22:43:34.878Z,4.09
2018-12-01T22:46:39.531Z,4.35
2018-12-01T22:49:44.175Z,4.15
2018-12-01T22:52:50.475Z,4.30
2018-12-01T22:55:55.108Z,4.27
2018-12-01T22:58:59.661Z,4.29
2018-12-01T23:02:04.420Z,4.42
2018-12-01T23:05:09.080Z,4.39
2018-12-01T23:08:17.152Z,4.47
2018-12-01T23:11:21.874Z,4.43
2018-12-01T23:14:26.525Z,3.98
2018-12-01T23:17:31.242Z,3.90
2018-12-01T23:20:35.911Z,4.08
2018-12-01T23:23:40.503Z,3.99
2018-12-01T23:26:45.163Z,4.25
2018-12-01T23:29:49.734Z,4.25
2018-12-01T23:32:59.533Z,4.23
2018-12-01T23:36:08.203Z,4.27
2018-12-01T23:39:14.105Z,4.31
2018-12-01T23:42:18.699Z,4.34
2018-12-01T23:45:23.663Z,4.50
2018-12-01T23:48:28.362Z,4.61
2018-12-01T23:51:32.929Z,4.73
2018-12-01T23:54:37.559Z,4.74
2018-12-01T23:57:42.205Z,4.42
